Terminal Aerodrome Forecast
Issued by NWS

Home | Current Version | Previous Version | Text Only | Print | Product List | Glossary On
Versions: 1 2 3 4 5 6 7 8 9 10 11 12 13 14 15 16 17 18 19 20 21 22 23 24 25 26 27 28 29
000
FTUS43 KDMX 051733
TAFFOD
TAF
KFOD 051733Z 0518/0618 18013G18KT P6SM FEW035 BKN250
     FM060100 17012KT P6SM SCT100 BKN200
     FM061300 21013KT P6SM VCTS BKN035CB=

USA.gov is the U.S. government's official web portal to all federal, state and local government web resources and services.